createdAt,value
2022-12-03T00:00:21.787Z,17.43
2022-12-03T00:03:08.901Z,11.97
2022-12-03T00:05:56.444Z,19.07
2022-12-03T00:08:43.255Z,17.07
2022-12-03T00:11:30.191Z,13.50
2022-12-03T00:14:18.687Z,15.53
2022-12-03T00:17:05.274Z,17.33
2022-12-03T00:19:52.317Z,16.47
2022-12-03T00:22:39.271Z,12.80
2022-12-03T00:25:26.211Z,17.33
2022-12-03T00:28:13.087Z,16.37
2022-12-03T00:31:01.477Z,14.93
2022-12-03T00:33:48.321Z,15.07
2022-12-03T00:36:35.169Z,15.33
2022-12-03T00:39:22.267Z,14.83
2022-12-03T00:42:09.256Z,15.70
2022-12-03T00:44:56.183Z,16.63
2022-12-03T00:47:44.458Z,12.93
2022-12-03T00:50:31.468Z,17.10
2022-12-03T00:53:18.383Z,17.80
2022-12-03T00:56:05.547Z,18.53
2022-12-03T00:58:52.436Z,16.50
2022-12-03T01:01:39.323Z,14.50
2022-12-03T01:04:27.649Z,22.23
2022-12-03T01:07:14.492Z,14.63
2022-12-03T01:10:01.322Z,13.07
2022-12-03T01:12:48.140Z,18.87
2022-12-03T01:15:35.441Z,22.50
2022-12-03T01:18:22.061Z,19.70
2022-12-03T01:21:10.089Z,19.43
2022-12-03T01:23:57.127Z,18.93
2022-12-03T01:26:43.812Z,17.83
2022-12-03T01:29:30.816Z,16.93
2022-12-03T01:32:16.741Z,16.67
2022-12-03T01:35:03.742Z,18.90
2022-12-03T01:37:52.015Z,15.43
2022-12-03T01:40:38.927Z,20.47
2022-12-03T01:43:25.896Z,20.70
2022-12-03T01:46:15.337Z,19.93
2022-12-03T01:49:02.020Z,21.43
2022-12-03T01:51:52.351Z,19.70
2022-12-03T01:54:45.554Z,19.60
2022-12-03T01:57:42.186Z,22.57
2022-12-03T02:00:30.651Z,22.90
2022-12-03T02:03:23.570Z,18.93
2022-12-03T02:06:18.242Z,21.33
2022-12-03T02:09:08.500Z,19.63
2022-12-03T02:11:56.572Z,21.70
2022-12-03T02:14:43.816Z,14.20
2022-12-03T02:17:30.943Z,19.30
2022-12-03T02:20:18.432Z,19.30
2022-12-03T02:23:15.056Z,16.53
2022-12-03T02:26:03.196Z,24.73
2022-12-03T02:28:53.331Z,20.40
2022-12-03T02:31:40.299Z,20.43
2022-12-03T02:34:42.300Z,22.97
2022-12-03T02:37:34.284Z,16.37
2022-12-03T02:40:25.777Z,23.80
2022-12-03T02:43:16.512Z,20.40
2022-12-03T02:46:06.722Z,22.37
2022-12-03T02:48:53.630Z,21.90
2022-12-03T02:51:40.692Z,22.87
2022-12-03T02:54:27.865Z,33.70
2022-12-03T02:57:14.648Z,22.67
2022-12-03T03:00:03.013Z,21.47
2022-12-03T03:02:50.684Z,19.83
2022-12-03T03:05:40.363Z,23.20
2022-12-03T03:08:28.785Z,20.93
2022-12-03T03:11:15.891Z,25.73
2022-12-03T03:14:03.719Z,27.20
2022-12-03T03:16:56.078Z,23.47
2022-12-03T03:19:43.849Z,24.23
2022-12-03T03:22:34.790Z,23.80
2022-12-03T03:25:22.437Z,16.90
2022-12-03T03:28:09.224Z,31.87
2022-12-03T03:30:56.142Z,26.50
2022-12-03T03:33:48.231Z,30.80
2022-12-03T03:36:35.921Z,19.77
2022-12-03T03:39:22.547Z,30.57
2022-12-03T03:42:09.902Z,25.57
2022-12-03T03:44:56.569Z,25.53
2022-12-03T03:47:46.252Z,25.00
2022-12-03T03:50:35.216Z,24.07
2022-12-03T03:53:24.076Z,21.57
2022-12-03T03:56:11.570Z,23.23
2022-12-03T03:58:58.638Z,18.97
2022-12-03T04:01:46.518Z,26.83
2022-12-03T04:04:38.671Z,23.50
2022-12-03T04:07:26.932Z,20.70
2022-12-03T04:10:32.680Z,22.20
2022-12-03T04:13:19.555Z,18.67
2022-12-03T04:16:06.791Z,23.10
2022-12-03T04:18:53.516Z,22.80
2022-12-03T04:21:58.108Z,29.43
2022-12-03T04:24:46.685Z,21.50
2022-12-03T04:27:51.092Z,20.80
2022-12-03T04:30:37.801Z,22.97
2022-12-03T04:33:42.518Z,25.77
2022-12-03T04:36:29.310Z,24.83
2022-12-03T04:39:16.023Z,21.20
2022-12-03T04:42:06.825Z,20.33
2022-12-03T04:44:59.573Z,23.20
2022-12-03T04:47:46.294Z,23.27
2022-12-03T04:50:33.191Z,24.37
2022-12-03T04:53:20.363Z,19.20
2022-12-03T04:56:08.424Z,19.93
2022-12-03T04:58:56.763Z,23.60
2022-12-03T05:01:43.623Z,22.53
2022-12-03T05:04:30.531Z,22.87
2022-12-03T05:07:17.421Z,16.40
2022-12-03T05:10:05.244Z,20.20
2022-12-03T05:12:54.776Z,20.57
2022-12-03T05:15:42.958Z,22.93
2022-12-03T05:18:29.659Z,29.80
2022-12-03T05:21:16.976Z,20.37
2022-12-03T05:24:07.809Z,20.87
2022-12-03T05:26:54.212Z,16.13
2022-12-03T05:29:42.053Z,18.83
2022-12-03T05:32:30.498Z,11.60
2022-12-03T05:35:17.881Z,18.47
2022-12-03T05:38:04.276Z,18.23
2022-12-03T05:40:51.117Z,17.07
2022-12-03T05:43:37.028Z,19.93
2022-12-03T05:46:23.705Z,18.33
2022-12-03T05:49:11.806Z,19.13
2022-12-03T05:51:59.007Z,23.37
2022-12-03T05:54:45.803Z,14.07
2022-12-03T05:57:32.793Z,15.70
2022-12-03T06:00:24.160Z,16.57
2022-12-03T06:03:11.388Z,22.37
2022-12-03T06:05:59.801Z,21.13
2022-12-03T06:08:46.710Z,23.70
2022-12-03T06:11:36.837Z,23.03
2022-12-03T06:14:23.652Z,17.60
2022-12-03T06:17:10.513Z,14.27
2022-12-03T06:19:57.496Z,16.00
2022-12-03T06:22:46.791Z,15.60
2022-12-03T06:25:33.658Z,14.33
2022-12-03T06:28:20.553Z,13.70
2022-12-03T06:31:07.884Z,22.03
2022-12-03T06:33:54.801Z,14.73
2022-12-03T06:36:41.601Z,19.17
2022-12-03T06:39:29.742Z,15.50
2022-12-03T06:42:16.645Z,22.23
2022-12-03T06:45:03.620Z,13.70
2022-12-03T06:47:50.617Z,17.23
2022-12-03T06:50:37.322Z,19.20
2022-12-03T06:53:24.224Z,13.57
2022-12-03T06:56:12.466Z,19.37
2022-12-03T06:58:59.477Z,17.23
2022-12-03T07:01:46.293Z,13.77
2022-12-03T07:04:33.338Z,17.03
2022-12-03T07:07:20.052Z,18.83
2022-12-03T07:10:08.784Z,22.50
2022-12-03T07:12:56.697Z,18.73
2022-12-03T07:15:43.346Z,24.40
2022-12-03T07:18:30.135Z,22.07
2022-12-03T07:21:16.944Z,16.43
2022-12-03T07:24:03.853Z,20.47
2022-12-03T07:26:50.677Z,17.03
2022-12-03T07:29:38.897Z,22.07
2022-12-03T07:32:25.645Z,18.83
2022-12-03T07:35:12.550Z,19.07
2022-12-03T07:37:59.767Z,21.07
2022-12-03T07:40:48.436Z,22.47
2022-12-03T07:43:35.357Z,18.63
2022-12-03T07:46:23.497Z,17.73
2022-12-03T07:49:10.026Z,20.37
2022-12-03T07:51:57.187Z,21.87
2022-12-03T07:54:45.018Z,20.43
2022-12-03T07:57:31.572Z,19.70
2022-12-03T08:00:20.073Z,22.83
2022-12-03T08:03:08.328Z,15.93
2022-12-03T08:05:54.973Z,16.07
2022-12-03T08:08:43.297Z,20.20
2022-12-03T08:11:30.503Z,17.83
2022-12-03T08:14:19.883Z,17.93
2022-12-03T08:17:12.751Z,19.43
2022-12-03T08:20:00.999Z,19.83
2022-12-03T08:22:51.246Z,20.30
2022-12-03T08:25:38.087Z,20.50
2022-12-03T08:28:27.094Z,18.33
2022-12-03T08:31:27.977Z,19.63
2022-12-03T08:34:21.309Z,23.60
2022-12-03T08:37:19.076Z,16.13
2022-12-03T08:40:23.873Z,16.73
2022-12-03T08:43:20.766Z,22.50
2022-12-03T08:46:17.013Z,18.83
2022-12-03T08:49:06.086Z,15.53
2022-12-03T08:52:02.835Z,18.27
2022-12-03T08:54:54.822Z,20.43
2022-12-03T08:57:43.812Z,23.83
2022-12-03T09:00:30.373Z,14.27
2022-12-03T09:03:20.818Z,20.27
2022-12-03T09:06:08.557Z,20.13
2022-12-03T09:08:55.273Z,16.10
2022-12-03T09:11:44.266Z,17.10
2022-12-03T09:14:31.156Z,18.57
2022-12-03T09:17:17.672Z,19.03
2022-12-03T09:20:05.044Z,15.00
2022-12-03T09:22:51.749Z,16.53
2022-12-03T09:25:38.452Z,11.63
2022-12-03T09:28:26.757Z,18.93
2022-12-03T09:31:13.438Z,15.63
2022-12-03T09:34:00.516Z,15.17
2022-12-03T09:36:47.030Z,18.63
2022-12-03T09:39:33.588Z,18.97
2022-12-03T09:42:20.147Z,13.77
2022-12-03T09:45:13.203Z,16.03
2022-12-03T09:48:02.811Z,22.90
2022-12-03T09:50:51.609Z,21.53
2022-12-03T09:53:41.376Z,18.13
2022-12-03T09:56:28.320Z,17.10
2022-12-03T09:59:17.279Z,12.90
2022-12-03T10:02:18.054Z,16.67
2022-12-03T10:05:04.962Z,16.90
2022-12-03T10:07:53.856Z,20.60
2022-12-03T10:10:43.052Z,22.00
2022-12-03T10:13:34.471Z,18.70
2022-12-03T10:16:22.060Z,21.13
2022-12-03T10:19:20.043Z,25.23
2022-12-03T10:22:06.635Z,18.97
2022-12-03T10:25:10.522Z,18.83
2022-12-03T10:28:00.338Z,19.87
2022-12-03T10:30:56.216Z,19.23
2022-12-03T10:33:47.259Z,21.67
2022-12-03T10:36:35.134Z,20.27
2022-12-03T10:39:21.905Z,21.27
2022-12-03T10:42:16.911Z,17.23
2022-12-03T10:45:19.884Z,17.03
2022-12-03T10:48:13.874Z,25.23
2022-12-03T10:51:07.010Z,21.27
2022-12-03T10:53:55.386Z,19.07
2022-12-03T10:56:47.781Z,23.77
2022-12-03T10:59:43.744Z,25.67
2022-12-03T11:02:30.373Z,19.20
2022-12-03T11:05:21.062Z,18.77
2022-12-03T11:16:07.716Z,17.97
2022-12-03T11:24:27.899Z,20.97
2022-12-03T12:23:32.554Z,17.97
2022-12-03T12:26:19.507Z,21.93
2022-12-03T12:29:06.540Z,16.77
2022-12-03T12:32:00.753Z,17.30
2022-12-03T12:34:50.459Z,22.10
2022-12-03T12:37:47.320Z,22.13
2022-12-03T12:40:40.057Z,22.97
2022-12-03T12:43:29.551Z,19.63
2022-12-03T12:46:46.739Z,22.70
2022-12-03T12:49:26.841Z,19.80
2022-12-03T12:52:15.892Z,15.93
2022-12-03T12:55:10.913Z,26.47
2022-12-03T12:58:04.263Z,20.87
2022-12-03T13:00:55.616Z,17.53
2022-12-03T13:03:42.152Z,20.87
2022-12-03T13:06:31.928Z,18.87
2022-12-03T13:09:22.933Z,16.37
2022-12-03T13:12:22.158Z,13.73
2022-12-03T13:15:39.525Z,19.17
2022-12-03T13:18:40.862Z,18.10
2022-12-03T13:21:38.622Z,17.53
2022-12-03T13:24:32.552Z,21.97
2022-12-03T13:27:29.530Z,18.53
2022-12-03T13:30:20.947Z,21.37
2022-12-03T13:33:16.013Z,16.83
2022-12-03T13:36:03.108Z,18.17
2022-12-03T13:38:50.487Z,20.10
2022-12-03T13:41:54.891Z,23.30
2022-12-03T13:44:48.477Z,24.73
2022-12-03T13:47:36.661Z,16.67
2022-12-03T13:50:35.263Z,22.37
2022-12-03T13:53:24.755Z,21.60
2022-12-03T13:56:27.160Z,19.83
2022-12-03T13:59:14.546Z,23.37
2022-12-03T14:02:01.336Z,21.57
2022-12-03T14:04:49.408Z,24.10
2022-12-03T14:07:36.092Z,17.37
2022-12-03T14:10:22.650Z,21.37
2022-12-03T14:13:09.474Z,18.23
2022-12-03T14:15:56.442Z,27.67
2022-12-03T14:18:42.890Z,20.93
2022-12-03T14:21:31.011Z,20.90
2022-12-03T14:24:17.608Z,21.93
2022-12-03T14:27:04.599Z,21.23
2022-12-03T14:29:52.220Z,17.43
2022-12-03T14:32:39.135Z,19.30
2022-12-03T14:35:25.974Z,15.80
2022-12-03T14:38:13.729Z,17.73
2022-12-03T14:41:03.277Z,20.17
2022-12-03T14:43:49.700Z,21.10
2022-12-03T14:46:36.751Z,17.53
2022-12-03T14:49:23.210Z,16.60
2022-12-03T14:52:12.401Z,18.97
2022-12-03T14:55:00.761Z,22.33
2022-12-03T14:57:47.627Z,24.90
2022-12-03T15:00:34.127Z,22.67
2022-12-03T15:03:20.839Z,21.90
2022-12-03T15:06:08.235Z,18.37
2022-12-03T15:08:55.150Z,28.33
2022-12-03T15:11:46.382Z,15.30
2022-12-03T15:14:33.694Z,17.47
2022-12-03T15:17:29.518Z,19.90
2022-12-03T15:20:18.135Z,22.73
2022-12-03T15:23:04.823Z,24.60
2022-12-03T15:25:51.459Z,20.33
2022-12-03T15:28:42.982Z,16.20
2022-12-03T15:31:32.590Z,23.13
2022-12-03T15:34:22.813Z,18.27
2022-12-03T15:37:10.453Z,20.90
2022-12-03T15:39:57.532Z,22.40
2022-12-03T15:42:44.589Z,23.13
2022-12-03T15:45:32.419Z,24.47
2022-12-03T15:48:19.170Z,21.63
2022-12-03T15:51:06.113Z,26.13
2022-12-03T15:53:53.099Z,24.13
2022-12-03T15:56:40.030Z,22.87
2022-12-03T15:59:27.033Z,18.60
2022-12-03T16:02:15.471Z,22.40
2022-12-03T16:05:02.336Z,21.80
2022-12-03T16:07:49.152Z,22.17
2022-12-03T16:10:36.093Z,22.87
2022-12-03T16:13:22.978Z,27.57
2022-12-03T16:16:09.618Z,21.57
2022-12-03T16:18:57.721Z,25.67
2022-12-03T16:21:44.336Z,27.10
2022-12-03T16:24:30.874Z,30.57
2022-12-03T16:27:19.641Z,21.07
2022-12-03T16:30:11.936Z,22.47
2022-12-03T16:32:58.510Z,30.17
2022-12-03T16:35:46.351Z,30.50
2022-12-03T16:38:33.601Z,22.27
2022-12-03T16:41:20.297Z,26.10
2022-12-03T16:44:07.503Z,28.03
2022-12-03T16:46:54.390Z,24.70
2022-12-03T16:49:41.108Z,26.47
2022-12-03T16:52:29.091Z,32.23
2022-12-03T16:55:15.779Z,26.47
2022-12-03T16:58:02.163Z,29.93
2022-12-03T17:00:49.491Z,32.50
2022-12-03T17:03:36.655Z,27.27
2022-12-03T17:06:23.143Z,24.47
2022-12-03T17:09:10.929Z,25.23
2022-12-03T17:11:57.730Z,25.57
2022-12-03T17:14:44.198Z,27.97
2022-12-03T17:17:31.016Z,25.20
2022-12-03T17:20:18.491Z,30.40
2022-12-03T17:23:05.639Z,25.90
2022-12-03T17:25:53.826Z,29.07
2022-12-03T17:28:55.328Z,26.70
2022-12-03T17:31:42.990Z,36.40
2022-12-03T17:34:30.190Z,28.60
2022-12-03T17:37:17.068Z,28.23
2022-12-03T17:40:04.523Z,22.70
2022-12-03T17:42:52.654Z,25.57
2022-12-03T17:45:39.686Z,31.30
2022-12-03T17:48:27.995Z,26.87
2022-12-03T17:51:14.992Z,22.27
2022-12-03T17:54:01.525Z,29.73
2022-12-03T17:56:48.051Z,27.13
2022-12-03T17:59:36.157Z,28.57
2022-12-03T18:02:22.908Z,29.47
2022-12-03T18:05:10.832Z,30.83
2022-12-03T18:07:57.586Z,33.63
2022-12-03T18:10:44.325Z,27.57
2022-12-03T18:13:31.042Z,27.57
2022-12-03T18:16:19.194Z,24.10
2022-12-03T18:19:06.502Z,27.17
2022-12-03T18:21:53.251Z,26.93
2022-12-03T18:24:40.043Z,29.23
2022-12-03T18:27:27.054Z,26.33
2022-12-03T18:30:15.656Z,29.97
2022-12-03T18:33:03.860Z,27.10
2022-12-03T18:35:54.800Z,20.33
2022-12-03T18:38:41.632Z,27.27
2022-12-03T18:41:28.894Z,28.20
2022-12-03T18:44:15.496Z,26.50
2022-12-03T18:47:02.589Z,29.47
2022-12-03T18:49:50.964Z,26.40
2022-12-03T18:52:38.087Z,27.37
2022-12-03T18:55:25.957Z,31.50
2022-12-03T18:58:12.573Z,35.03
2022-12-03T19:00:59.088Z,29.13
2022-12-03T19:03:45.707Z,27.80
2022-12-03T19:06:35.615Z,28.40
2022-12-03T19:09:22.499Z,27.50
2022-12-03T19:12:14.711Z,29.03
2022-12-03T19:15:02.641Z,28.57
2022-12-03T19:17:49.924Z,33.20
2022-12-03T19:20:36.469Z,30.60
2022-12-03T19:23:24.654Z,20.77
2022-12-03T19:26:13.274Z,27.70
2022-12-03T19:28:59.789Z,23.80
2022-12-03T19:31:46.557Z,21.77
2022-12-03T19:34:33.477Z,29.33
2022-12-03T19:37:20.074Z,25.07
2022-12-03T19:40:12.732Z,30.83
2022-12-03T19:42:59.429Z,23.90
2022-12-03T19:45:45.973Z,27.83
2022-12-03T19:48:33.918Z,26.00
2022-12-03T19:51:33.970Z,25.93
2022-12-03T19:54:22.227Z,25.40
2022-12-03T19:57:10.856Z,20.20
2022-12-03T19:59:57.766Z,26.37
2022-12-03T20:02:44.766Z,26.33
2022-12-03T20:05:33.372Z,27.47
2022-12-03T20:08:20.370Z,27.83
2022-12-03T20:11:11.602Z,26.70
2022-12-03T20:14:03.465Z,25.43
2022-12-03T20:16:50.683Z,28.10
2022-12-03T20:19:37.619Z,25.70
2022-12-03T20:22:24.280Z,25.33
2022-12-03T20:25:12.059Z,32.63
2022-12-03T20:27:58.807Z,28.67
2022-12-03T20:30:47.894Z,21.57
2022-12-03T20:33:34.596Z,26.97
2022-12-03T20:36:23.491Z,28.63
2022-12-03T20:39:11.567Z,24.97
2022-12-03T20:41:58.967Z,24.80
2022-12-03T20:44:45.715Z,33.07
2022-12-03T20:47:34.183Z,23.93
2022-12-03T20:50:20.652Z,32.70
2022-12-03T20:53:24.373Z,24.63
2022-12-03T20:56:18.545Z,32.07
2022-12-03T20:59:13.082Z,25.87
2022-12-03T21:01:59.859Z,27.30
2022-12-03T21:04:48.215Z,31.07
2022-12-03T21:07:36.465Z,28.63
2022-12-03T21:10:44.925Z,27.77
2022-12-03T21:13:32.595Z,25.70
2022-12-03T21:16:45.380Z,32.03
2022-12-03T21:19:30.912Z,23.90
2022-12-03T21:22:18.832Z,30.93
2022-12-03T21:25:09.274Z,22.03
2022-12-03T21:27:55.914Z,25.13
2022-12-03T21:30:42.751Z,31.90
2022-12-03T21:33:30.310Z,28.93
2022-12-03T21:36:17.794Z,37.23
2022-12-03T21:39:07.179Z,30.70
2022-12-03T21:42:34.558Z,30.50
2022-12-03T21:45:00.443Z,32.50
2022-12-03T21:47:49.098Z,29.43
2022-12-03T21:50:35.970Z,33.40
2022-12-03T21:53:22.751Z,27.77
2022-12-03T21:56:14.168Z,32.13
2022-12-03T21:59:00.627Z,35.80
2022-12-03T22:01:47.676Z,36.43
2022-12-03T22:04:34.632Z,31.17
2022-12-03T22:07:22.676Z,33.03
2022-12-03T22:10:12.759Z,31.27
2022-12-03T22:13:01.023Z,31.40
2022-12-03T22:15:47.798Z,33.80
2022-12-03T22:18:35.311Z,31.37
2022-12-03T22:21:24.426Z,31.80
2022-12-03T22:24:11.362Z,27.90
2022-12-03T22:26:57.831Z,32.97
2022-12-03T22:29:45.840Z,26.40
2022-12-03T22:32:35.884Z,28.73
2022-12-03T22:35:22.483Z,25.10
2022-12-03T22:38:09.084Z,26.70
2022-12-03T22:40:55.719Z,28.50
2022-12-03T22:43:43.108Z,35.83
2022-12-03T22:46:31.608Z,23.67
2022-12-03T22:49:17.863Z,40.37
2022-12-03T22:52:05.043Z,33.80
2022-12-03T22:54:51.506Z,33.87
2022-12-03T22:57:37.908Z,34.70
2022-12-03T23:00:31.860Z,31.73
2022-12-03T23:03:20.394Z,28.97
2022-12-03T23:06:11.828Z,25.70
2022-12-03T23:09:01.810Z,27.73
2022-12-03T23:11:48.719Z,35.43
2022-12-03T23:14:35.806Z,28.07
2022-12-03T23:17:24.311Z,33.67
2022-12-03T23:20:14.353Z,30.40
2022-12-03T23:23:01.198Z,32.73
2022-12-03T23:25:58.597Z,29.10
2022-12-03T23:28:47.505Z,32.47
2022-12-03T23:31:35.857Z,31.67
2022-12-03T23:34:22.650Z,39.40
2022-12-03T23:37:11.134Z,31.40
2022-12-03T23:39:58.171Z,28.27
2022-12-03T23:42:45.192Z,24.67
2022-12-03T23:45:33.435Z,30.60
2022-12-03T23:48:20.123Z,23.97
2022-12-03T23:51:09.464Z,33.20
2022-12-03T23:53:58.140Z,29.63
2022-12-03T23:56:44.705Z,33.07
2022-12-03T23:59:31.383Z,23.50
